sensor_id;sensor_type;location;lat;lon;timestamp;P1;durP1;ratioP1;P2;durP2;ratioP2
7154;SDS011;3619;53.784;10.440;2022-12-26T00:01:16;16.93;;;16.33;;
7154;SDS011;3619;53.784;10.440;2022-12-26T00:03:47;19.07;;;18.37;;
7154;SDS011;3619;53.784;10.440;2022-12-26T00:06:19;20.60;;;19.80;;
7154;SDS011;3619;53.784;10.440;2022-12-26T00:08:51;20.00;;;19.23;;
7154;SDS011;3619;53.784;10.440;2022-12-26T00:11:46;22.63;;;21.77;;
7154;SDS011;3619;53.784;10.440;2022-12-26T00:15:40;22.23;;;21.43;;
7154;SDS011;3619;53.784;10.440;2022-12-26T00:17:36;24.73;;;23.83;;
7154;SDS011;3619;53.784;10.440;2022-12-26T00:20:18;26.70;;;25.70;;
7154;SDS011;3619;53.784;10.440;2022-12-26T00:23:01;25.37;;;24.37;;
7154;SDS011;3619;53.784;10.440;2022-12-26T00:25:38;24.07;;;23.17;;
7154;SDS011;3619;53.784;10.440;2022-12-26T00:28:22;24.67;;;23.77;;
7154;SDS011;3619;53.784;10.440;2022-12-26T00:31:15;26.40;;;25.40;;
7154;SDS011;3619;53.784;10.440;2022-12-26T00:34:03;25.87;;;24.87;;
7154;SDS011;3619;53.784;10.440;2022-12-26T00:36:44;25.03;;;24.07;;
7154;SDS011;3619;53.784;10.440;2022-12-26T00:45:26;28.77;;;27.67;;
7154;SDS011;3619;53.784;10.440;2022-12-26T00:47:54;22.77;;;21.87;;
7154;SDS011;3619;53.784;10.440;2022-12-26T00:50:22;27.10;;;26.10;;
7154;SDS011;3619;53.784;10.440;2022-12-26T00:52:49;25.43;;;24.43;;
7154;SDS011;3619;53.784;10.440;2022-12-26T00:55:18;22.60;;;21.73;;
7154;SDS011;3619;53.784;10.440;2022-12-26T00:57:47;21.73;;;20.93;;
7154;SDS011;3619;53.784;10.440;2022-12-26T01:00:17;24.33;;;23.43;;
7154;SDS011;3619;53.784;10.440;2022-12-26T01:02:46;25.20;;;24.20;;
7154;SDS011;3619;53.784;10.440;2022-12-26T01:05:16;28.83;;;27.73;;
7154;SDS011;3619;53.784;10.440;2022-12-26T01:07:43;24.50;;;23.60;;
7154;SDS011;3619;53.784;10.440;2022-12-26T01:10:18;20.47;;;19.67;;
7154;SDS011;3619;53.784;10.440;2022-12-26T01:12:51;30.17;;;29.00;;
7154;SDS011;3619;53.784;10.440;2022-12-26T01:15:19;31.00;;;29.80;;
7154;SDS011;3619;53.784;10.440;2022-12-26T01:17:52;32.83;;;31.53;;
7154;SDS011;3619;53.784;10.440;2022-12-26T01:20:19;27.07;;;26.07;;
7154;SDS011;3619;53.784;10.440;2022-12-26T01:22:46;25.33;;;24.33;;
7154;SDS011;3619;53.784;10.440;2022-12-26T01:25:16;28.07;;;26.97;;
7154;SDS011;3619;53.784;10.440;2022-12-26T01:27:47;26.90;;;25.90;;
7154;SDS011;3619;53.784;10.440;2022-12-26T01:30:16;28.50;;;27.40;;
7154;SDS011;3619;53.784;10.440;2022-12-26T01:32:43;23.83;;;22.93;;
7154;SDS011;3619;53.784;10.440;2022-12-26T01:35:15;25.23;;;24.23;;
7154;SDS011;3619;53.784;10.440;2022-12-26T01:37:54;26.90;;;25.90;;
7154;SDS011;3619;53.784;10.440;2022-12-26T01:40:21;22.90;;;22.00;;
7154;SDS011;3619;53.784;10.440;2022-12-26T01:42:49;20.40;;;19.60;;
7154;SDS011;3619;53.784;10.440;2022-12-26T01:45:23;16.83;;;16.23;;
7154;SDS011;3619;53.784;10.440;2022-12-26T01:47:58;18.53;;;17.83;;
7154;SDS011;3619;53.784;10.440;2022-12-26T01:50:36;16.60;;;16.00;;
7154;SDS011;3619;53.784;10.440;2022-12-26T01:53:09;16.83;;;16.23;;
7154;SDS011;3619;53.784;10.440;2022-12-26T01:55:40;14.47;;;13.97;;
7154;SDS011;3619;53.784;10.440;2022-12-26T01:58:11;13.47;;;12.97;;
7154;SDS011;3619;53.784;10.440;2022-12-26T02:00:44;13.67;;;13.17;;
7154;SDS011;3619;53.784;10.440;2022-12-26T02:03:15;12.47;;;11.97;;
7154;SDS011;3619;53.784;10.440;2022-12-26T02:06:02;12.87;;;12.37;;
7154;SDS011;3619;53.784;10.440;2022-12-26T02:08:31;8.00;;;7.70;;
7154;SDS011;3619;53.784;10.440;2022-12-26T02:11:02;7.77;;;7.47;;
7154;SDS011;3619;53.784;10.440;2022-12-26T02:13:41;8.00;;;7.70;;
7154;SDS011;3619;53.784;10.440;2022-12-26T02:16:08;8.07;;;7.77;;
7154;SDS011;3619;53.784;10.440;2022-12-26T02:18:49;8.23;;;7.93;;
7154;SDS011;3619;53.784;10.440;2022-12-26T02:24:16;7.07;;;6.80;;
7154;SDS011;3619;53.784;10.440;2022-12-26T02:27:03;6.50;;;6.30;;
7154;SDS011;3619;53.784;10.440;2022-12-26T02:33:08;6.83;;;6.63;;
7154;SDS011;3619;53.784;10.440;2022-12-26T02:35:51;6.13;;;5.93;;
7154;SDS011;3619;53.784;10.440;2022-12-26T02:38:39;6.23;;;6.03;;
7154;SDS011;3619;53.784;10.440;2022-12-26T02:41:22;5.77;;;5.57;;
7154;SDS011;3619;53.784;10.440;2022-12-26T02:43:58;5.87;;;5.67;;
7154;SDS011;3619;53.784;10.440;2022-12-26T02:46:53;5.40;;;5.20;;
7154;SDS011;3619;53.784;10.440;2022-12-26T02:49:35;5.33;;;5.13;;
7154;SDS011;3619;53.784;10.440;2022-12-26T02:52:44;4.83;;;4.63;;
7154;SDS011;3619;53.784;10.440;2022-12-26T02:55:40;4.77;;;4.57;;
7154;SDS011;3619;53.784;10.440;2022-12-26T02:58:29;4.30;;;4.20;;
7154;SDS011;3619;53.784;10.440;2022-12-26T03:01:22;3.77;;;3.67;;
7154;SDS011;3619;53.784;10.440;2022-12-26T03:04:12;4.03;;;3.93;;
7154;SDS011;3619;53.784;10.440;2022-12-26T03:07:02;3.47;;;3.37;;
7154;SDS011;3619;53.784;10.440;2022-12-26T03:09:52;3.67;;;3.57;;
7154;SDS011;3619;53.784;10.440;2022-12-26T03:12:47;3.30;;;3.20;;
7154;SDS011;3619;53.784;10.440;2022-12-26T03:15:37;3.83;;;3.73;;
7154;SDS011;3619;53.784;10.440;2022-12-26T03:18:28;3.40;;;3.30;;
7154;SDS011;3619;53.784;10.440;2022-12-26T03:20:59;4.03;;;3.93;;
7154;SDS011;3619;53.784;10.440;2022-12-26T03:23:28;3.53;;;3.43;;
7154;SDS011;3619;53.784;10.440;2022-12-26T03:25:56;3.20;;;3.10;;
7154;SDS011;3619;53.784;10.440;2022-12-26T03:28:44;3.50;;;3.40;;
7154;SDS011;3619;53.784;10.440;2022-12-26T03:31:14;3.73;;;3.63;;
7154;SDS011;3619;53.784;10.440;2022-12-26T03:33:41;3.60;;;3.50;;
7154;SDS011;3619;53.784;10.440;2022-12-26T03:36:34;3.33;;;3.23;;
7154;SDS011;3619;53.784;10.440;2022-12-26T03:39:16;2.90;;;2.80;;
7154;SDS011;3619;53.784;10.440;2022-12-26T03:42:11;2.80;;;2.70;;
7154;SDS011;3619;53.784;10.440;2022-12-26T03:45:02;2.70;;;2.60;;
7154;SDS011;3619;53.784;10.440;2022-12-26T03:48:00;2.80;;;2.70;;
7154;SDS011;3619;53.784;10.440;2022-12-26T03:50:55;2.93;;;2.83;;
7154;SDS011;3619;53.784;10.440;2022-12-26T03:53:50;3.10;;;3.00;;
7154;SDS011;3619;53.784;10.440;2022-12-26T03:56:41;2.97;;;2.87;;
7154;SDS011;3619;53.784;10.440;2022-12-26T03:59:31;2.70;;;2.60;;
7154;SDS011;3619;53.784;10.440;2022-12-26T04:02:21;3.40;;;3.30;;
7154;SDS011;3619;53.784;10.440;2022-12-26T04:05:07;3.07;;;2.97;;
7154;SDS011;3619;53.784;10.440;2022-12-26T04:07:54;2.33;;;2.23;;
7154;SDS011;3619;53.784;10.440;2022-12-26T04:10:43;2.63;;;2.53;;
7154;SDS011;3619;53.784;10.440;2022-12-26T04:13:35;2.73;;;2.63;;
7154;SDS011;3619;53.784;10.440;2022-12-26T04:16:30;2.47;;;2.37;;
7154;SDS011;3619;53.784;10.440;2022-12-26T04:19:18;2.23;;;2.13;;
7154;SDS011;3619;53.784;10.440;2022-12-26T04:22:02;2.27;;;2.17;;
7154;SDS011;3619;53.784;10.440;2022-12-26T04:24:51;2.20;;;2.10;;
7154;SDS011;3619;53.784;10.440;2022-12-26T04:30:30;2.50;;;2.40;;
7154;SDS011;3619;53.784;10.440;2022-12-26T04:33:21;2.73;;;2.63;;
7154;SDS011;3619;53.784;10.440;2022-12-26T04:36:12;2.30;;;2.20;;
7154;SDS011;3619;53.784;10.440;2022-12-26T04:39:01;2.47;;;2.37;;
7154;SDS011;3619;53.784;10.440;2022-12-26T04:41:56;2.40;;;2.30;;
7154;SDS011;3619;53.784;10.440;2022-12-26T04:44:42;2.27;;;2.17;;
7154;SDS011;3619;53.784;10.440;2022-12-26T04:47:13;2.30;;;2.20;;
7154;SDS011;3619;53.784;10.440;2022-12-26T04:49:41;2.97;;;2.87;;
7154;SDS011;3619;53.784;10.440;2022-12-26T04:52:26;2.63;;;2.53;;
7154;SDS011;3619;53.784;10.440;2022-12-26T04:55:14;2.27;;;2.17;;
7154;SDS011;3619;53.784;10.440;2022-12-26T04:57:43;3.00;;;2.90;;
7154;SDS011;3619;53.784;10.440;2022-12-26T05:00:13;2.37;;;2.27;;
7154;SDS011;3619;53.784;10.440;2022-12-26T05:02:54;3.00;;;2.90;;
7154;SDS011;3619;53.784;10.440;2022-12-26T05:05:43;2.37;;;2.27;;
7154;SDS011;3619;53.784;10.440;2022-12-26T05:08:34;2.60;;;2.50;;
7154;SDS011;3619;53.784;10.440;2022-12-26T05:11:20;2.53;;;2.43;;
7154;SDS011;3619;53.784;10.440;2022-12-26T05:13:47;2.97;;;2.87;;
7154;SDS011;3619;53.784;10.440;2022-12-26T05:16:18;2.93;;;2.83;;
7154;SDS011;3619;53.784;10.440;2022-12-26T05:19:07;2.80;;;2.70;;
7154;SDS011;3619;53.784;10.440;2022-12-26T05:21:59;3.30;;;3.20;;
7154;SDS011;3619;53.784;10.440;2022-12-26T05:24:49;2.83;;;2.73;;
7154;SDS011;3619;53.784;10.440;2022-12-26T05:27:35;2.80;;;2.70;;
7154;SDS011;3619;53.784;10.440;2022-12-26T05:30:22;3.10;;;3.00;;
7154;SDS011;3619;53.784;10.440;2022-12-26T05:32:49;3.37;;;3.27;;
7154;SDS011;3619;53.784;10.440;2022-12-26T05:35:35;3.13;;;3.03;;
7154;SDS011;3619;53.784;10.440;2022-12-26T05:38:04;3.80;;;3.70;;
7154;SDS011;3619;53.784;10.440;2022-12-26T05:40:34;3.17;;;3.07;;
7154;SDS011;3619;53.784;10.440;2022-12-26T05:43:01;2.97;;;2.87;;
7154;SDS011;3619;53.784;10.440;2022-12-26T05:45:28;3.23;;;3.13;;
7154;SDS011;3619;53.784;10.440;2022-12-26T05:47:57;2.87;;;2.77;;
7154;SDS011;3619;53.784;10.440;2022-12-26T05:50:31;3.07;;;2.97;;
7154;SDS011;3619;53.784;10.440;2022-12-26T05:52:59;2.60;;;2.50;;
7154;SDS011;3619;53.784;10.440;2022-12-26T05:55:32;2.67;;;2.57;;
7154;SDS011;3619;53.784;10.440;2022-12-26T05:57:59;2.90;;;2.80;;
7154;SDS011;3619;53.784;10.440;2022-12-26T06:00:26;2.60;;;2.50;;
7154;SDS011;3619;53.784;10.440;2022-12-26T06:02:54;2.70;;;2.60;;
7154;SDS011;3619;53.784;10.440;2022-12-26T06:05:31;2.47;;;2.37;;
7154;SDS011;3619;53.784;10.440;2022-12-26T06:10:46;3.20;;;3.10;;
7154;SDS011;3619;53.784;10.440;2022-12-26T06:13:15;2.50;;;2.40;;
7154;SDS011;3619;53.784;10.440;2022-12-26T06:15:42;3.00;;;2.90;;
7154;SDS011;3619;53.784;10.440;2022-12-26T06:18:08;2.83;;;2.73;;
7154;SDS011;3619;53.784;10.440;2022-12-26T06:20:37;2.90;;;2.80;;
7154;SDS011;3619;53.784;10.440;2022-12-26T06:23:04;3.00;;;2.90;;
7154;SDS011;3619;53.784;10.440;2022-12-26T06:25:34;2.67;;;2.57;;
7154;SDS011;3619;53.784;10.440;2022-12-26T06:28:09;2.50;;;2.40;;
7154;SDS011;3619;53.784;10.440;2022-12-26T06:30:35;2.50;;;2.40;;
7154;SDS011;3619;53.784;10.440;2022-12-26T06:33:02;2.77;;;2.67;;
7154;SDS011;3619;53.784;10.440;2022-12-26T06:35:29;4.13;;;4.03;;
7154;SDS011;3619;53.784;10.440;2022-12-26T06:37:58;2.67;;;2.57;;
7154;SDS011;3619;53.784;10.440;2022-12-26T06:40:28;2.70;;;2.60;;
7154;SDS011;3619;53.784;10.440;2022-12-26T06:42:58;3.00;;;2.90;;
7154;SDS011;3619;53.784;10.440;2022-12-26T06:45:28;2.60;;;2.50;;
7154;SDS011;3619;53.784;10.440;2022-12-26T06:47:57;2.43;;;2.33;;
7154;SDS011;3619;53.784;10.440;2022-12-26T06:50:24;2.70;;;2.60;;
7154;SDS011;3619;53.784;10.440;2022-12-26T06:52:53;2.33;;;2.23;;
7154;SDS011;3619;53.784;10.440;2022-12-26T06:55:19;2.50;;;2.40;;
7154;SDS011;3619;53.784;10.440;2022-12-26T06:57:46;2.67;;;2.57;;
7154;SDS011;3619;53.784;10.440;2022-12-26T07:00:19;2.33;;;2.23;;
7154;SDS011;3619;53.784;10.440;2022-12-26T07:02:49;2.00;;;1.90;;
7154;SDS011;3619;53.784;10.440;2022-12-26T07:05:18;2.73;;;2.63;;
7154;SDS011;3619;53.784;10.440;2022-12-26T07:07:48;2.60;;;2.50;;
7154;SDS011;3619;53.784;10.440;2022-12-26T07:10:18;2.90;;;2.80;;
7154;SDS011;3619;53.784;10.440;2022-12-26T07:12:45;2.67;;;2.57;;
7154;SDS011;3619;53.784;10.440;2022-12-26T07:15:15;2.57;;;2.47;;
7154;SDS011;3619;53.784;10.440;2022-12-26T07:17:46;3.20;;;3.10;;
7154;SDS011;3619;53.784;10.440;2022-12-26T07:20:14;2.83;;;2.73;;
7154;SDS011;3619;53.784;10.440;2022-12-26T07:22:41;2.70;;;2.60;;
7154;SDS011;3619;53.784;10.440;2022-12-26T07:25:08;2.33;;;2.23;;
7154;SDS011;3619;53.784;10.440;2022-12-26T07:27:35;2.43;;;2.33;;
7154;SDS011;3619;53.784;10.440;2022-12-26T07:30:04;2.63;;;2.53;;
7154;SDS011;3619;53.784;10.440;2022-12-26T07:32:32;2.67;;;2.57;;
7154;SDS011;3619;53.784;10.440;2022-12-26T07:35:01;2.20;;;2.10;;
7154;SDS011;3619;53.784;10.440;2022-12-26T07:37:29;2.30;;;2.20;;
7154;SDS011;3619;53.784;10.440;2022-12-26T07:39:56;2.00;;;1.90;;
7154;SDS011;3619;53.784;10.440;2022-12-26T07:42:23;2.30;;;2.20;;
7154;SDS011;3619;53.784;10.440;2022-12-26T07:44:49;2.60;;;2.50;;
7154;SDS011;3619;53.784;10.440;2022-12-26T07:47:16;2.87;;;2.77;;
7154;SDS011;3619;53.784;10.440;2022-12-26T07:49:43;3.33;;;3.23;;
7154;SDS011;3619;53.784;10.440;2022-12-26T07:52:13;2.90;;;2.80;;
7154;SDS011;3619;53.784;10.440;2022-12-26T07:54:40;3.20;;;3.10;;
7154;SDS011;3619;53.784;10.440;2022-12-26T07:57:07;2.63;;;2.53;;
7154;SDS011;3619;53.784;10.440;2022-12-26T07:59:35;2.93;;;2.83;;
7154;SDS011;3619;53.784;10.440;2022-12-26T08:02:01;2.57;;;2.47;;
7154;SDS011;3619;53.784;10.440;2022-12-26T08:04:29;3.00;;;2.90;;
7154;SDS011;3619;53.784;10.440;2022-12-26T08:06:56;2.90;;;2.80;;
7154;SDS011;3619;53.784;10.440;2022-12-26T08:09:24;3.27;;;3.17;;
7154;SDS011;3619;53.784;10.440;2022-12-26T08:12:04;3.30;;;3.20;;
7154;SDS011;3619;53.784;10.440;2022-12-26T08:14:53;3.30;;;3.20;;
7154;SDS011;3619;53.784;10.440;2022-12-26T08:17:20;3.20;;;3.10;;
7154;SDS011;3619;53.784;10.440;2022-12-26T08:19:48;3.40;;;3.30;;
7154;SDS011;3619;53.784;10.440;2022-12-26T08:22:15;2.47;;;2.37;;
7154;SDS011;3619;53.784;10.440;2022-12-26T08:24:46;3.63;;;3.50;;
7154;SDS011;3619;53.784;10.440;2022-12-26T08:27:14;3.37;;;3.27;;
7154;SDS011;3619;53.784;10.440;2022-12-26T08:29:41;2.50;;;2.40;;
7154;SDS011;3619;53.784;10.440;2022-12-26T08:32:12;2.40;;;2.30;;
7154;SDS011;3619;53.784;10.440;2022-12-26T08:34:43;2.97;;;2.87;;
7154;SDS011;3619;53.784;10.440;2022-12-26T08:37:12;3.40;;;3.27;;
7154;SDS011;3619;53.784;10.440;2022-12-26T08:39:39;2.40;;;2.30;;
7154;SDS011;3619;53.784;10.440;2022-12-26T08:42:08;2.50;;;2.40;;
7154;SDS011;3619;53.784;10.440;2022-12-26T08:44:34;2.60;;;2.50;;
7154;SDS011;3619;53.784;10.440;2022-12-26T08:47:01;2.40;;;2.30;;
7154;SDS011;3619;53.784;10.440;2022-12-26T08:49:32;2.43;;;2.33;;
7154;SDS011;3619;53.784;10.440;2022-12-26T08:52:01;2.03;;;1.93;;
7154;SDS011;3619;53.784;10.440;2022-12-26T08:54:30;2.23;;;2.13;;
7154;SDS011;3619;53.784;10.440;2022-12-26T08:56:57;1.90;;;1.87;;
7154;SDS011;3619;53.784;10.440;2022-12-26T08:59:57;2.20;;;2.10;;
7154;SDS011;3619;53.784;10.440;2022-12-26T09:02:24;2.10;;;2.00;;
7154;SDS011;3619;53.784;10.440;2022-12-26T09:07:05;2.07;;;1.97;;
7154;SDS011;3619;53.784;10.440;2022-12-26T09:07:52;2.37;;;2.27;;
7154;SDS011;3619;53.784;10.440;2022-12-26T09:10:20;2.60;;;2.50;;
7154;SDS011;3619;53.784;10.440;2022-12-26T09:12:47;2.40;;;2.30;;
7154;SDS011;3619;53.784;10.440;2022-12-26T09:15:22;2.50;;;2.40;;
7154;SDS011;3619;53.784;10.440;2022-12-26T09:17:58;2.50;;;2.40;;
7154;SDS011;3619;53.784;10.440;2022-12-26T09:20:25;2.53;;;2.43;;
7154;SDS011;3619;53.784;10.440;2022-12-26T09:22:53;2.40;;;2.30;;
7154;SDS011;3619;53.784;10.440;2022-12-26T09:25:26;2.70;;;2.60;;
7154;SDS011;3619;53.784;10.440;2022-12-26T09:27:56;2.47;;;2.37;;
7154;SDS011;3619;53.784;10.440;2022-12-26T09:30:26;2.67;;;2.57;;
7154;SDS011;3619;53.784;10.440;2022-12-26T09:33:00;2.50;;;2.40;;
7154;SDS011;3619;53.784;10.440;2022-12-26T09:35:28;4.97;;;4.77;;
7154;SDS011;3619;53.784;10.440;2022-12-26T09:37:57;3.10;;;3.00;;
7154;SDS011;3619;53.784;10.440;2022-12-26T09:40:25;3.40;;;3.30;;
7154;SDS011;3619;53.784;10.440;2022-12-26T09:42:59;3.17;;;3.07;;
7154;SDS011;3619;53.784;10.440;2022-12-26T09:45:39;2.97;;;2.87;;
7154;SDS011;3619;53.784;10.440;2022-12-26T09:48:15;3.30;;;3.20;;
7154;SDS011;3619;53.784;10.440;2022-12-26T09:50:48;3.30;;;3.20;;
7154;SDS011;3619;53.784;10.440;2022-12-26T09:53:23;4.40;;;4.20;;
7154;SDS011;3619;53.784;10.440;2022-12-26T09:55:57;3.50;;;3.40;;
7154;SDS011;3619;53.784;10.440;2022-12-26T09:58:27;3.43;;;3.33;;
7154;SDS011;3619;53.784;10.440;2022-12-26T10:01:00;3.70;;;3.60;;
7154;SDS011;3619;53.784;10.440;2022-12-26T10:03:32;3.83;;;3.73;;
7154;SDS011;3619;53.784;10.440;2022-12-26T10:06:06;4.63;;;4.43;;
7154;SDS011;3619;53.784;10.440;2022-12-26T10:11:48;4.10;;;4.00;;
7154;SDS011;3619;53.784;10.440;2022-12-26T10:14:47;7.40;;;7.00;;
7154;SDS011;3619;53.784;10.440;2022-12-26T10:17:21;4.33;;;4.23;;
7154;SDS011;3619;53.784;10.440;2022-12-26T10:20:03;5.47;;;5.27;;
7154;SDS011;3619;53.784;10.440;2022-12-26T10:25:52;4.93;;;4.73;;
7154;SDS011;3619;53.784;10.440;2022-12-26T10:28:26;4.90;;;4.70;;
7154;SDS011;3619;53.784;10.440;2022-12-26T10:30:57;5.40;;;5.20;;
7154;SDS011;3619;53.784;10.440;2022-12-26T10:33:32;5.67;;;5.47;;
7154;SDS011;3619;53.784;10.440;2022-12-26T10:36:08;5.40;;;5.20;;
7154;SDS011;3619;53.784;10.440;2022-12-26T10:38:54;6.47;;;6.27;;
7154;SDS011;3619;53.784;10.440;2022-12-26T10:41:24;6.23;;;6.03;;
7154;SDS011;3619;53.784;10.440;2022-12-26T10:43:52;5.97;;;5.77;;
7154;SDS011;3619;53.784;10.440;2022-12-26T10:49:28;6.27;;;6.07;;
7154;SDS011;3619;53.784;10.440;2022-12-26T10:51:55;7.90;;;7.60;;
7154;SDS011;3619;53.784;10.440;2022-12-26T10:54:25;6.47;;;6.27;;
7154;SDS011;3619;53.784;10.440;2022-12-26T10:56:54;7.47;;;7.17;;
7154;SDS011;3619;53.784;10.440;2022-12-26T10:59:26;7.47;;;7.17;;
7154;SDS011;3619;53.784;10.440;2022-12-26T11:02:10;7.53;;;7.23;;
7154;SDS011;3619;53.784;10.440;2022-12-26T11:05:08;7.40;;;7.10;;
7154;SDS011;3619;53.784;10.440;2022-12-26T11:07:44;8.40;;;8.10;;
7154;SDS011;3619;53.784;10.440;2022-12-26T11:10:23;8.60;;;8.30;;
7154;SDS011;3619;53.784;10.440;2022-12-26T11:12:53;8.07;;;7.77;;
7154;SDS011;3619;53.784;10.440;2022-12-26T11:15:25;7.90;;;7.60;;
7154;SDS011;3619;53.784;10.440;2022-12-26T11:18:06;7.27;;;6.97;;
7154;SDS011;3619;53.784;10.440;2022-12-26T11:20:36;7.73;;;7.43;;
7154;SDS011;3619;53.784;10.440;2022-12-26T11:23:19;8.00;;;7.70;;
7154;SDS011;3619;53.784;10.440;2022-12-26T11:25:49;10.03;;;9.63;;
7154;SDS011;3619;53.784;10.440;2022-12-26T11:28:25;9.60;;;9.23;;
7154;SDS011;3619;53.784;10.440;2022-12-26T11:30:54;12.23;;;11.73;;
7154;SDS011;3619;53.784;10.440;2022-12-26T11:33:23;10.43;;;10.03;;
7154;SDS011;3619;53.784;10.440;2022-12-26T11:35:59;10.00;;;9.60;;
7154;SDS011;3619;53.784;10.440;2022-12-26T11:38:41;10.73;;;10.33;;
7154;SDS011;3619;53.784;10.440;2022-12-26T11:41:18;10.60;;;10.20;;
7154;SDS011;3619;53.784;10.440;2022-12-26T11:44:10;10.23;;;9.83;;
7154;SDS011;3619;53.784;10.440;2022-12-26T11:46:50;10.90;;;10.50;;
7154;SDS011;3619;53.784;10.440;2022-12-26T11:49:23;10.97;;;10.57;;
7154;SDS011;3619;53.784;10.440;2022-12-26T11:51:54;13.07;;;12.57;;
7154;SDS011;3619;53.784;10.440;2022-12-26T11:54:27;11.67;;;11.27;;
7154;SDS011;3619;53.784;10.440;2022-12-26T11:57:06;11.33;;;10.93;;
7154;SDS011;3619;53.784;10.440;2022-12-26T11:59:41;13.37;;;12.87;;
7154;SDS011;3619;53.784;10.440;2022-12-26T12:04:55;13.13;;;12.63;;
7154;SDS011;3619;53.784;10.440;2022-12-26T12:07:35;13.60;;;13.10;;
7154;SDS011;3619;53.784;10.440;2022-12-26T12:13:13;12.70;;;12.20;;
7154;SDS011;3619;53.784;10.440;2022-12-26T12:15:49;13.00;;;12.50;;
7154;SDS011;3619;53.784;10.440;2022-12-26T12:18:26;13.60;;;13.10;;
7154;SDS011;3619;53.784;10.440;2022-12-26T12:21:02;15.00;;;14.40;;
7154;SDS011;3619;53.784;10.440;2022-12-26T12:23:53;17.83;;;17.13;;
7154;SDS011;3619;53.784;10.440;2022-12-26T12:26:36;14.90;;;14.30;;
7154;SDS011;3619;53.784;10.440;2022-12-26T12:32:04;14.47;;;13.97;;
7154;SDS011;3619;53.784;10.440;2022-12-26T12:34:40;15.93;;;15.33;;
7154;SDS011;3619;53.784;10.440;2022-12-26T12:37:23;12.97;;;12.47;;
7154;SDS011;3619;53.784;10.440;2022-12-26T12:40:02;13.27;;;12.77;;
7154;SDS011;3619;53.784;10.440;2022-12-26T12:42:42;13.93;;;13.43;;
7154;SDS011;3619;53.784;10.440;2022-12-26T12:45:21;11.53;;;11.13;;
7154;SDS011;3619;53.784;10.440;2022-12-26T12:47:58;12.50;;;12.00;;
7154;SDS011;3619;53.784;10.440;2022-12-26T12:50:38;12.37;;;11.87;;
7154;SDS011;3619;53.784;10.440;2022-12-26T12:53:16;12.87;;;12.37;;
7154;SDS011;3619;53.784;10.440;2022-12-26T12:56:02;10.97;;;10.57;;
7154;SDS011;3619;53.784;10.440;2022-12-26T12:58:40;10.73;;;10.33;;
7154;SDS011;3619;53.784;10.440;2022-12-26T13:01:12;12.93;;;12.43;;
7154;SDS011;3619;53.784;10.440;2022-12-26T13:03:45;12.00;;;11.60;;
7154;SDS011;3619;53.784;10.440;2022-12-26T13:06:16;13.17;;;12.67;;
7154;SDS011;3619;53.784;10.440;2022-12-26T13:08:49;12.80;;;12.30;;
7154;SDS011;3619;53.784;10.440;2022-12-26T13:11:22;13.73;;;13.23;;
7154;SDS011;3619;53.784;10.440;2022-12-26T13:13:53;12.17;;;11.70;;
7154;SDS011;3619;53.784;10.440;2022-12-26T13:16:25;12.17;;;11.70;;
7154;SDS011;3619;53.784;10.440;2022-12-26T13:18:57;10.97;;;10.57;;
7154;SDS011;3619;53.784;10.440;2022-12-26T13:21:27;11.20;;;10.80;;
7154;SDS011;3619;53.784;10.440;2022-12-26T13:23:57;11.47;;;11.07;;
7154;SDS011;3619;53.784;10.440;2022-12-26T13:26:47;11.70;;;11.20;;
7154;SDS011;3619;53.784;10.440;2022-12-26T13:29:26;14.70;;;14.17;;
7154;SDS011;3619;53.784;10.440;2022-12-26T13:32:00;14.23;;;13.73;;
7154;SDS011;3619;53.784;10.440;2022-12-26T13:34:30;17.80;;;17.10;;
7154;SDS011;3619;53.784;10.440;2022-12-26T13:36:57;18.20;;;17.50;;
7154;SDS011;3619;53.784;10.440;2022-12-26T13:39:35;17.47;;;16.80;;
7154;SDS011;3619;53.784;10.440;2022-12-26T13:42:16;14.03;;;13.53;;
7154;SDS011;3619;53.784;10.440;2022-12-26T13:54:16;36.90;;;35.50;;
7154;SDS011;3619;53.784;10.440;2022-12-26T13:56:58;37.10;;;35.70;;
7154;SDS011;3619;53.784;10.440;2022-12-26T13:59:59;36.90;;;35.50;;
7154;SDS011;3619;53.784;10.440;2022-12-26T14:02:49;40.87;;;39.30;;
7154;SDS011;3619;53.784;10.440;2022-12-26T14:05:34;33.47;;;32.17;;
7154;SDS011;3619;53.784;10.440;2022-12-26T14:08:15;27.93;;;26.90;;
7154;SDS011;3619;53.784;10.440;2022-12-26T14:10:55;34.07;;;32.77;;
7154;SDS011;3619;53.784;10.440;2022-12-26T14:13:39;28.40;;;27.30;;
7154;SDS011;3619;53.784;10.440;2022-12-26T14:16:28;28.00;;;26.90;;
7154;SDS011;3619;53.784;10.440;2022-12-26T14:19:05;24.27;;;23.37;;
7154;SDS011;3619;53.784;10.440;2022-12-26T14:21:44;23.33;;;22.43;;
7154;SDS011;3619;53.784;10.440;2022-12-26T14:24:21;20.77;;;19.97;;
7154;SDS011;3619;53.784;10.440;2022-12-26T14:26:55;22.83;;;21.93;;
7154;SDS011;3619;53.784;10.440;2022-12-26T14:29:45;15.37;;;14.77;;
7154;SDS011;3619;53.784;10.440;2022-12-26T14:32:21;15.23;;;14.63;;
7154;SDS011;3619;53.784;10.440;2022-12-26T14:37:34;11.90;;;11.50;;
7154;SDS011;3619;53.784;10.440;2022-12-26T14:43:04;13.17;;;12.67;;
7154;SDS011;3619;53.784;10.440;2022-12-26T14:45:40;11.57;;;11.17;;
7154;SDS011;3619;53.784;10.440;2022-12-26T14:48:38;9.77;;;9.37;;
7154;SDS011;3619;53.784;10.440;2022-12-26T14:51:31;8.73;;;8.43;;
7154;SDS011;3619;53.784;10.440;2022-12-26T14:54:32;8.37;;;8.07;;
7154;SDS011;3619;53.784;10.440;2022-12-26T15:00:22;11.07;;;10.67;;
7154;SDS011;3619;53.784;10.440;2022-12-26T15:03:13;11.07;;;10.67;;
7154;SDS011;3619;53.784;10.440;2022-12-26T15:06:11;9.93;;;9.53;;
7154;SDS011;3619;53.784;10.440;2022-12-26T15:18:09;10.33;;;9.93;;
7154;SDS011;3619;53.784;10.440;2022-12-26T15:27:00;8.63;;;8.33;;
7154;SDS011;3619;53.784;10.440;2022-12-26T15:32:42;8.10;;;7.80;;
7154;SDS011;3619;53.784;10.440;2022-12-26T15:35:20;11.27;;;10.87;;
7154;SDS011;3619;53.784;10.440;2022-12-26T15:38:03;10.90;;;10.50;;
7154;SDS011;3619;53.784;10.440;2022-12-26T15:40:51;12.23;;;11.73;;
7154;SDS011;3619;53.784;10.440;2022-12-26T15:46:28;15.93;;;15.33;;
7154;SDS011;3619;53.784;10.440;2022-12-26T15:52:06;16.47;;;15.87;;
7154;SDS011;3619;53.784;10.440;2022-12-26T15:54:50;16.97;;;16.37;;
7154;SDS011;3619;53.784;10.440;2022-12-26T15:57:35;16.27;;;15.67;;
7154;SDS011;3619;53.784;10.440;2022-12-26T16:00:14;17.60;;;16.90;;
7154;SDS011;3619;53.784;10.440;2022-12-26T16:02:45;18.73;;;18.03;;
7154;SDS011;3619;53.784;10.440;2022-12-26T16:08:29;15.63;;;15.03;;
7154;SDS011;3619;53.784;10.440;2022-12-26T16:11:20;16.97;;;16.37;;
7154;SDS011;3619;53.784;10.440;2022-12-26T16:13:55;14.00;;;13.50;;
7154;SDS011;3619;53.784;10.440;2022-12-26T16:16:46;16.33;;;15.73;;
7154;SDS011;3619;53.784;10.440;2022-12-26T16:19:21;16.23;;;15.63;;
7154;SDS011;3619;53.784;10.440;2022-12-26T16:21:53;15.40;;;14.80;;
7154;SDS011;3619;53.784;10.440;2022-12-26T16:24:43;18.67;;;17.97;;
7154;SDS011;3619;53.784;10.440;2022-12-26T16:29:59;13.83;;;13.33;;
7154;SDS011;3619;53.784;10.440;2022-12-26T16:32:39;14.63;;;14.13;;
7154;SDS011;3619;53.784;10.440;2022-12-26T16:35:25;13.73;;;13.23;;
7154;SDS011;3619;53.784;10.440;2022-12-26T16:37:58;15.17;;;14.57;;
7154;SDS011;3619;53.784;10.440;2022-12-26T16:40:30;15.63;;;15.03;;
7154;SDS011;3619;53.784;10.440;2022-12-26T16:43:01;16.17;;;15.57;;
7154;SDS011;3619;53.784;10.440;2022-12-26T16:45:43;18.10;;;17.40;;
7154;SDS011;3619;53.784;10.440;2022-12-26T16:48:13;18.10;;;17.40;;
7154;SDS011;3619;53.784;10.440;2022-12-26T16:50:43;14.97;;;14.37;;
7154;SDS011;3619;53.784;10.440;2022-12-26T16:53:13;14.63;;;14.13;;
7154;SDS011;3619;53.784;10.440;2022-12-26T16:55:43;16.63;;;16.03;;
7154;SDS011;3619;53.784;10.440;2022-12-26T16:58:20;17.10;;;16.50;;
7154;SDS011;3619;53.784;10.440;2022-12-26T17:00:53;14.13;;;13.63;;
7154;SDS011;3619;53.784;10.440;2022-12-26T17:03:42;17.77;;;17.07;;
7154;SDS011;3619;53.784;10.440;2022-12-26T17:06:15;16.50;;;15.90;;
7154;SDS011;3619;53.784;10.440;2022-12-26T17:08:47;14.80;;;14.27;;
7154;SDS011;3619;53.784;10.440;2022-12-26T17:11:24;17.13;;;16.53;;